sensor_id;sensor_type;location;lat;lon;timestamp;temperature;humidity
70456;DHT22;57916;51.996;5.180;2022-12-10T00:01:30;4.10;71.40
70456;DHT22;57916;51.996;5.180;2022-12-10T00:03:58;4.10;71.70
70456;DHT22;57916;51.996;5.180;2022-12-10T00:06:27;4.10;71.90
70456;DHT22;57916;51.996;5.180;2022-12-10T00:08:54;4.10;72.10
70456;DHT22;57916;51.996;5.180;2022-12-10T00:11:22;4.10;72.10
70456;DHT22;57916;51.996;5.180;2022-12-10T00:13:50;4.10;72.30
70456;DHT22;57916;51.996;5.180;2022-12-10T00:16:19;4.10;72.30
70456;DHT22;57916;51.996;5.180;2022-12-10T00:18:47;4.10;73.20
70456;DHT22;57916;51.996;5.180;2022-12-10T00:21:16;4.10;72.40
70456;DHT22;57916;51.996;5.180;2022-12-10T00:23:45;4.10;72.30
70456;DHT22;57916;51.996;5.180;2022-12-10T00:26:17;4.20;72.30
70456;DHT22;57916;51.996;5.180;2022-12-10T00:28:46;4.20;72.30
70456;DHT22;57916;51.996;5.180;2022-12-10T00:33:45;4.30;72.10
70456;DHT22;57916;51.996;5.180;2022-12-10T00:36:21;4.30;72.10
70456;DHT22;57916;51.996;5.180;2022-12-10T00:38:49;4.30;72.10
70456;DHT22;57916;51.996;5.180;2022-12-10T00:41:16;4.30;71.90
70456;DHT22;57916;51.996;5.180;2022-12-10T00:43:43;4.40;72.00
70456;DHT22;57916;51.996;5.180;2022-12-10T00:46:12;4.30;72.70
70456;DHT22;57916;51.996;5.180;2022-12-10T00:48:40;4.30;71.90
70456;DHT22;57916;51.996;5.180;2022-12-10T00:51:09;4.30;72.00
70456;DHT22;57916;51.996;5.180;2022-12-10T00:53:38;4.20;72.10
70456;DHT22;57916;51.996;5.180;2022-12-10T00:56:07;4.20;72.00
70456;DHT22;57916;51.996;5.180;2022-12-10T00:58:37;4.20;72.00
70456;DHT22;57916;51.996;5.180;2022-12-10T01:01:20;4.20;72.20
70456;DHT22;57916;51.996;5.180;2022-12-10T01:03:50;4.20;72.20
70456;DHT22;57916;51.996;5.180;2022-12-10T01:06:30;4.20;72.30
70456;DHT22;57916;51.996;5.180;2022-12-10T01:08:59;4.20;72.30
70456;DHT22;57916;51.996;5.180;2022-12-10T01:11:30;4.20;72.30
70456;DHT22;57916;51.996;5.180;2022-12-10T01:13:58;4.20;72.30
70456;DHT22;57916;51.996;5.180;2022-12-10T01:16:26;4.20;72.20
70456;DHT22;57916;51.996;5.180;2022-12-10T01:18:58;4.20;72.20
70456;DHT22;57916;51.996;5.180;2022-12-10T01:21:27;4.20;72.10
70456;DHT22;57916;51.996;5.180;2022-12-10T01:23:56;4.10;72.10
70456;DHT22;57916;51.996;5.180;2022-12-10T01:26:30;4.10;72.30
70456;DHT22;57916;51.996;5.180;2022-12-10T01:28:57;4.10;72.50
70456;DHT22;57916;51.996;5.180;2022-12-10T01:31:35;4.10;72.60
70456;DHT22;57916;51.996;5.180;2022-12-10T01:34:07;4.20;72.40
70456;DHT22;57916;51.996;5.180;2022-12-10T01:36:37;4.20;72.40
70456;DHT22;57916;51.996;5.180;2022-12-10T01:39:06;4.20;72.30
70456;DHT22;57916;51.996;5.180;2022-12-10T01:41:39;4.20;72.30
70456;DHT22;57916;51.996;5.180;2022-12-10T01:46:42;4.10;72.30
70456;DHT22;57916;51.996;5.180;2022-12-10T01:49:15;4.10;72.60
70456;DHT22;57916;51.996;5.180;2022-12-10T01:51:48;4.20;72.50
70456;DHT22;57916;51.996;5.180;2022-12-10T01:56:51;4.20;72.50
70456;DHT22;57916;51.996;5.180;2022-12-10T01:59:21;4.20;72.30
70456;DHT22;57916;51.996;5.180;2022-12-10T02:10:50;4.20;72.20
70456;DHT22;57916;51.996;5.180;2022-12-10T02:13:30;4.20;72.20
70456;DHT22;57916;51.996;5.180;2022-12-10T02:16:09;4.10;72.20
70456;DHT22;57916;51.996;5.180;2022-12-10T02:21:39;4.10;72.40
70456;DHT22;57916;51.996;5.180;2022-12-10T02:24:12;4.10;72.40
70456;DHT22;57916;51.996;5.180;2022-12-10T02:26:58;4.10;72.50
70456;DHT22;57916;51.996;5.180;2022-12-10T02:29:29;4.10;72.60
70456;DHT22;57916;51.996;5.180;2022-12-10T02:34:34;4.10;72.70
70456;DHT22;57916;51.996;5.180;2022-12-10T02:37:14;4.10;72.70
70456;DHT22;57916;51.996;5.180;2022-12-10T02:39:48;4.10;72.70
70456;DHT22;57916;51.996;5.180;2022-12-10T02:42:17;4.10;72.70
70456;DHT22;57916;51.996;5.180;2022-12-10T02:44:47;4.10;72.80
70456;DHT22;57916;51.996;5.180;2022-12-10T02:47:19;4.10;72.90
70456;DHT22;57916;51.996;5.180;2022-12-10T02:49:50;4.10;72.90
70456;DHT22;57916;51.996;5.180;2022-12-10T02:52:21;4.10;72.90
70456;DHT22;57916;51.996;5.180;2022-12-10T02:54:51;4.10;73.00
70456;DHT22;57916;51.996;5.180;2022-12-10T03:00:50;4.10;73.10
70456;DHT22;57916;51.996;5.180;2022-12-10T03:03:32;4.20;73.20
70456;DHT22;57916;51.996;5.180;2022-12-10T03:06:11;4.20;73.20
70456;DHT22;57916;51.996;5.180;2022-12-10T03:08:54;4.30;73.20
70456;DHT22;57916;51.996;5.180;2022-12-10T03:11:23;4.30;73.20
70456;DHT22;57916;51.996;5.180;2022-12-10T03:14:02;4.30;73.20
70456;DHT22;57916;51.996;5.180;2022-12-10T03:16:35;4.30;73.10
70456;DHT22;57916;51.996;5.180;2022-12-10T03:19:06;4.40;73.00
70456;DHT22;57916;51.996;5.180;2022-12-10T03:21:37;4.30;72.90
70456;DHT22;57916;51.996;5.180;2022-12-10T03:24:08;4.30;73.00
70456;DHT22;57916;51.996;5.180;2022-12-10T03:26:37;4.30;73.00
70456;DHT22;57916;51.996;5.180;2022-12-10T03:29:07;4.30;73.10
70456;DHT22;57916;51.996;5.180;2022-12-10T03:31:35;4.30;73.20
70456;DHT22;57916;51.996;5.180;2022-12-10T03:34:04;4.30;73.20
70456;DHT22;57916;51.996;5.180;2022-12-10T03:36:32;4.30;74.00
70456;DHT22;57916;51.996;5.180;2022-12-10T03:39:00;4.20;73.20
70456;DHT22;57916;51.996;5.180;2022-12-10T03:41:28;4.30;73.50
70456;DHT22;57916;51.996;5.180;2022-12-10T03:43:57;4.30;73.50
70456;DHT22;57916;51.996;5.180;2022-12-10T03:46:25;4.30;73.60
70456;DHT22;57916;51.996;5.180;2022-12-10T03:52:06;4.30;73.40
70456;DHT22;57916;51.996;5.180;2022-12-10T03:54:33;4.30;73.50
70456;DHT22;57916;51.996;5.180;2022-12-10T03:57:00;4.30;73.40
70456;DHT22;57916;51.996;5.180;2022-12-10T03:59:27;4.30;73.40
70456;DHT22;57916;51.996;5.180;2022-12-10T04:01:57;4.30;73.40
70456;DHT22;57916;51.996;5.180;2022-12-10T04:04:24;4.30;73.50
70456;DHT22;57916;51.996;5.180;2022-12-10T04:06:51;4.30;73.50
70456;DHT22;57916;51.996;5.180;2022-12-10T04:09:18;4.30;73.60
70456;DHT22;57916;51.996;5.180;2022-12-10T04:11:45;4.30;73.50
70456;DHT22;57916;51.996;5.180;2022-12-10T04:14:13;4.20;73.50
70456;DHT22;57916;51.996;5.180;2022-12-10T04:16:59;4.30;73.40
70456;DHT22;57916;51.996;5.180;2022-12-10T04:19:27;4.20;73.50
70456;DHT22;57916;51.996;5.180;2022-12-10T04:21:53;4.20;73.30
70456;DHT22;57916;51.996;5.180;2022-12-10T04:24:39;4.30;73.50
70456;DHT22;57916;51.996;5.180;2022-12-10T04:27:33;4.30;73.50
70456;DHT22;57916;51.996;5.180;2022-12-10T04:30:04;4.30;73.40
70456;DHT22;57916;51.996;5.180;2022-12-10T04:32:32;4.30;73.40
70456;DHT22;57916;51.996;5.180;2022-12-10T04:34:59;4.30;73.30
70456;DHT22;57916;51.996;5.180;2022-12-10T04:37:27;4.30;73.40
70456;DHT22;57916;51.996;5.180;2022-12-10T04:39:54;4.30;73.40
70456;DHT22;57916;51.996;5.180;2022-12-10T04:42:21;4.30;73.50
70456;DHT22;57916;51.996;5.180;2022-12-10T04:44:48;4.30;73.50
70456;DHT22;57916;51.996;5.180;2022-12-10T04:47:18;4.30;73.50
70456;DHT22;57916;51.996;5.180;2022-12-10T04:49:45;4.40;73.50
70456;DHT22;57916;51.996;5.180;2022-12-10T04:52:14;4.40;73.30
70456;DHT22;57916;51.996;5.180;2022-12-10T04:54:41;4.30;73.10
70456;DHT22;57916;51.996;5.180;2022-12-10T04:57:09;4.30;73.20
70456;DHT22;57916;51.996;5.180;2022-12-10T04:59:37;4.30;73.40
70456;DHT22;57916;51.996;5.180;2022-12-10T05:02:05;4.30;73.60
70456;DHT22;57916;51.996;5.180;2022-12-10T05:04:32;4.30;73.60
70456;DHT22;57916;51.996;5.180;2022-12-10T05:06:59;4.40;73.60
70456;DHT22;57916;51.996;5.180;2022-12-10T05:09:27;4.40;73.30
70456;DHT22;57916;51.996;5.180;2022-12-10T05:11:54;4.40;73.20
70456;DHT22;57916;51.996;5.180;2022-12-10T05:14:20;4.40;73.10
70456;DHT22;57916;51.996;5.180;2022-12-10T05:16:50;4.40;73.20
70456;DHT22;57916;51.996;5.180;2022-12-10T05:19:19;4.40;73.20
70456;DHT22;57916;51.996;5.180;2022-12-10T05:21:50;4.40;73.40
70456;DHT22;57916;51.996;5.180;2022-12-10T05:24:36;4.40;73.30
70456;DHT22;57916;51.996;5.180;2022-12-10T05:27:04;4.40;73.40
70456;DHT22;57916;51.996;5.180;2022-12-10T05:29:32;4.40;73.40
70456;DHT22;57916;51.996;5.180;2022-12-10T05:31:59;4.40;73.60
70456;DHT22;57916;51.996;5.180;2022-12-10T05:34:26;4.30;73.40
70456;DHT22;57916;51.996;5.180;2022-12-10T05:36:53;4.30;73.60
70456;DHT22;57916;51.996;5.180;2022-12-10T05:39:20;4.30;73.50
70456;DHT22;57916;51.996;5.180;2022-12-10T05:41:47;4.20;73.60
70456;DHT22;57916;51.996;5.180;2022-12-10T05:44:14;4.20;73.80
70456;DHT22;57916;51.996;5.180;2022-12-10T05:46:41;4.20;73.90
70456;DHT22;57916;51.996;5.180;2022-12-10T05:49:08;4.10;73.90
70456;DHT22;57916;51.996;5.180;2022-12-10T05:51:36;4.10;73.80
70456;DHT22;57916;51.996;5.180;2022-12-10T05:54:05;4.10;74.00
70456;DHT22;57916;51.996;5.180;2022-12-10T05:56:32;4.10;73.80
70456;DHT22;57916;51.996;5.180;2022-12-10T05:59:01;4.10;73.90
70456;DHT22;57916;51.996;5.180;2022-12-10T06:01:33;4.00;73.90
70456;DHT22;57916;51.996;5.180;2022-12-10T06:04:02;4.00;74.10
70456;DHT22;57916;51.996;5.180;2022-12-10T06:06:32;4.00;74.10
70456;DHT22;57916;51.996;5.180;2022-12-10T06:08:59;4.00;74.00
70456;DHT22;57916;51.996;5.180;2022-12-10T06:11:26;3.90;74.00
70456;DHT22;57916;51.996;5.180;2022-12-10T06:13:55;4.00;74.10
70456;DHT22;57916;51.996;5.180;2022-12-10T06:16:24;4.00;74.10
70456;DHT22;57916;51.996;5.180;2022-12-10T06:18:52;4.00;74.10
70456;DHT22;57916;51.996;5.180;2022-12-10T06:21:19;4.00;73.90
70456;DHT22;57916;51.996;5.180;2022-12-10T06:23:47;4.00;73.80
70456;DHT22;57916;51.996;5.180;2022-12-10T06:26:18;4.00;73.80
70456;DHT22;57916;51.996;5.180;2022-12-10T06:28:46;3.90;73.80
70456;DHT22;57916;51.996;5.180;2022-12-10T06:31:14;3.90;73.80
70456;DHT22;57916;51.996;5.180;2022-12-10T06:33:41;3.90;73.80
70456;DHT22;57916;51.996;5.180;2022-12-10T06:36:10;3.90;74.10
70456;DHT22;57916;51.996;5.180;2022-12-10T06:38:38;3.90;73.90
70456;DHT22;57916;51.996;5.180;2022-12-10T06:41:07;3.90;73.90
70456;DHT22;57916;51.996;5.180;2022-12-10T06:43:35;3.90;74.00
70456;DHT22;57916;51.996;5.180;2022-12-10T06:46:13;3.90;73.90
70456;DHT22;57916;51.996;5.180;2022-12-10T06:48:41;3.90;73.80
70456;DHT22;57916;51.996;5.180;2022-12-10T06:51:09;3.80;73.80
70456;DHT22;57916;51.996;5.180;2022-12-10T06:53:38;3.80;74.00
70456;DHT22;57916;51.996;5.180;2022-12-10T06:56:06;3.90;74.20
70456;DHT22;57916;51.996;5.180;2022-12-10T06:58:34;3.90;74.10
70456;DHT22;57916;51.996;5.180;2022-12-10T07:01:05;4.00;74.10
70456;DHT22;57916;51.996;5.180;2022-12-10T07:03:33;4.00;74.10
70456;DHT22;57916;51.996;5.180;2022-12-10T07:06:00;4.10;74.10
70456;DHT22;57916;51.996;5.180;2022-12-10T07:08:28;4.10;73.90
70456;DHT22;57916;51.996;5.180;2022-12-10T07:10:55;4.10;73.70
70456;DHT22;57916;51.996;5.180;2022-12-10T07:13:22;4.20;73.60
70456;DHT22;57916;51.996;5.180;2022-12-10T07:15:56;4.20;73.60
70456;DHT22;57916;51.996;5.180;2022-12-10T07:18:24;4.20;73.50
70456;DHT22;57916;51.996;5.180;2022-12-10T07:20:51;4.20;73.30
70456;DHT22;57916;51.996;5.180;2022-12-10T07:23:18;4.20;73.30
70456;DHT22;57916;51.996;5.180;2022-12-10T07:25:45;4.20;73.20
70456;DHT22;57916;51.996;5.180;2022-12-10T07:28:12;4.20;73.00
70456;DHT22;57916;51.996;5.180;2022-12-10T07:30:39;4.10;73.00
70456;DHT22;57916;51.996;5.180;2022-12-10T07:33:06;4.00;73.10
70456;DHT22;57916;51.996;5.180;2022-12-10T07:35:33;4.00;73.10
70456;DHT22;57916;51.996;5.180;2022-12-10T07:38:00;3.90;73.20
70456;DHT22;57916;51.996;5.180;2022-12-10T07:40:27;3.90;73.30
70456;DHT22;57916;51.996;5.180;2022-12-10T07:42:54;3.90;73.30
70456;DHT22;57916;51.996;5.180;2022-12-10T07:45:21;3.90;73.20
70456;DHT22;57916;51.996;5.180;2022-12-10T07:47:47;3.90;73.20
70456;DHT22;57916;51.996;5.180;2022-12-10T07:50:14;3.80;73.10
70456;DHT22;57916;51.996;5.180;2022-12-10T07:52:41;3.90;73.30
70456;DHT22;57916;51.996;5.180;2022-12-10T07:55:08;3.80;73.20
70456;DHT22;57916;51.996;5.180;2022-12-10T07:57:35;3.80;73.40
70456;DHT22;57916;51.996;5.180;2022-12-10T08:00:03;3.80;73.40
70456;DHT22;57916;51.996;5.180;2022-12-10T08:02:37;3.80;73.40
70456;DHT22;57916;51.996;5.180;2022-12-10T08:05:05;3.90;73.60
70456;DHT22;57916;51.996;5.180;2022-12-10T08:07:32;3.90;73.60
70456;DHT22;57916;51.996;5.180;2022-12-10T08:09:59;3.90;73.50
70456;DHT22;57916;51.996;5.180;2022-12-10T08:12:26;3.90;73.50
70456;DHT22;57916;51.996;5.180;2022-12-10T08:14:53;4.00;73.50
70456;DHT22;57916;51.996;5.180;2022-12-10T08:17:20;3.90;73.30
70456;DHT22;57916;51.996;5.180;2022-12-10T08:19:47;3.90;73.20
70456;DHT22;57916;51.996;5.180;2022-12-10T08:22:14;3.90;73.20
70456;DHT22;57916;51.996;5.180;2022-12-10T08:24:41;3.90;73.20
70456;DHT22;57916;51.996;5.180;2022-12-10T08:27:08;3.90;73.30
70456;DHT22;57916;51.996;5.180;2022-12-10T08:29:35;3.90;73.20
70456;DHT22;57916;51.996;5.180;2022-12-10T08:32:02;3.90;72.90
70456;DHT22;57916;51.996;5.180;2022-12-10T08:34:29;3.70;73.00
70456;DHT22;57916;51.996;5.180;2022-12-10T08:36:56;3.70;73.30
70456;DHT22;57916;51.996;5.180;2022-12-10T08:39:23;3.70;73.40
70456;DHT22;57916;51.996;5.180;2022-12-10T08:41:50;3.70;73.60
70456;DHT22;57916;51.996;5.180;2022-12-10T08:44:19;3.70;73.50
70456;DHT22;57916;51.996;5.180;2022-12-10T08:46:46;3.60;73.50
70456;DHT22;57916;51.996;5.180;2022-12-10T08:49:13;3.60;73.50
70456;DHT22;57916;51.996;5.180;2022-12-10T08:51:41;3.60;73.50
70456;DHT22;57916;51.996;5.180;2022-12-10T08:54:08;3.60;73.60
70456;DHT22;57916;51.996;5.180;2022-12-10T08:56:35;3.60;73.60
70456;DHT22;57916;51.996;5.180;2022-12-10T08:59:02;3.60;73.80
70456;DHT22;57916;51.996;5.180;2022-12-10T09:01:29;3.60;73.70
70456;DHT22;57916;51.996;5.180;2022-12-10T09:03:56;3.60;73.90
70456;DHT22;57916;51.996;5.180;2022-12-10T09:06:24;3.70;73.90
70456;DHT22;57916;51.996;5.180;2022-12-10T09:08:52;3.70;73.90
70456;DHT22;57916;51.996;5.180;2022-12-10T09:11:29;3.70;73.90
70456;DHT22;57916;51.996;5.180;2022-12-10T09:13:56;3.70;73.80
70456;DHT22;57916;51.996;5.180;2022-12-10T09:16:32;3.80;74.90
70456;DHT22;57916;51.996;5.180;2022-12-10T09:19:00;3.80;74.00
70456;DHT22;57916;51.996;5.180;2022-12-10T09:21:28;3.80;73.90
70456;DHT22;57916;51.996;5.180;2022-12-10T09:23:56;3.90;73.80
70456;DHT22;57916;51.996;5.180;2022-12-10T09:26:24;3.90;73.40
70456;DHT22;57916;51.996;5.180;2022-12-10T09:28:51;3.80;73.30
70456;DHT22;57916;51.996;5.180;2022-12-10T09:31:19;3.80;73.40
70456;DHT22;57916;51.996;5.180;2022-12-10T09:33:48;3.80;73.40
70456;DHT22;57916;51.996;5.180;2022-12-10T09:36:15;3.70;73.30
70456;DHT22;57916;51.996;5.180;2022-12-10T09:38:44;3.70;73.60
70456;DHT22;57916;51.996;5.180;2022-12-10T09:46:58;3.70;73.40
70456;DHT22;57916;51.996;5.180;2022-12-10T09:52:21;3.60;73.30
70456;DHT22;57916;51.996;5.180;2022-12-10T09:55:00;3.60;73.70
70456;DHT22;57916;51.996;5.180;2022-12-10T09:57:41;3.60;74.00
70456;DHT22;57916;51.996;5.180;2022-12-10T10:00:38;3.50;73.90
70456;DHT22;57916;51.996;5.180;2022-12-10T10:03:09;3.50;74.10
70456;DHT22;57916;51.996;5.180;2022-12-10T10:05:51;3.50;74.60
70456;DHT22;57916;51.996;5.180;2022-12-10T10:10:53;3.60;74.60
70456;DHT22;57916;51.996;5.180;2022-12-10T10:15:47;3.80;74.20
70456;DHT22;57916;51.996;5.180;2022-12-10T10:18:38;3.80;74.00
70456;DHT22;57916;51.996;5.180;2022-12-10T10:21:26;3.90;73.90
70456;DHT22;57916;51.996;5.180;2022-12-10T10:23:54;3.90;73.70
70456;DHT22;57916;51.996;5.180;2022-12-10T10:26:24;3.90;73.50
70456;DHT22;57916;51.996;5.180;2022-12-10T10:29:01;4.00;73.60
70456;DHT22;57916;51.996;5.180;2022-12-10T10:31:31;4.00;73.50
70456;DHT22;57916;51.996;5.180;2022-12-10T10:34:21;4.00;73.40
70456;DHT22;57916;51.996;5.180;2022-12-10T10:36:57;4.00;73.40
70456;DHT22;57916;51.996;5.180;2022-12-10T10:39:30;4.00;73.30
70456;DHT22;57916;51.996;5.180;2022-12-10T10:41:59;3.90;73.20
70456;DHT22;57916;51.996;5.180;2022-12-10T10:44:35;3.80;73.20
70456;DHT22;57916;51.996;5.180;2022-12-10T10:47:23;3.80;73.60
70456;DHT22;57916;51.996;5.180;2022-12-10T10:49:58;3.70;73.70
70456;DHT22;57916;51.996;5.180;2022-12-10T10:52:34;3.60;73.60
70456;DHT22;57916;51.996;5.180;2022-12-10T10:55:01;3.50;73.70
70456;DHT22;57916;51.996;5.180;2022-12-10T10:57:31;3.50;74.20
70456;DHT22;57916;51.996;5.180;2022-12-10T11:00:20;3.60;74.40
70456;DHT22;57916;51.996;5.180;2022-12-10T11:02:49;3.60;74.50
70456;DHT22;57916;51.996;5.180;2022-12-10T11:05:24;3.70;74.60
70456;DHT22;57916;51.996;5.180;2022-12-10T11:08:04;3.80;74.70
70456;DHT22;57916;51.996;5.180;2022-12-10T11:10:32;3.80;74.30
70456;DHT22;57916;51.996;5.180;2022-12-10T11:13:06;3.90;74.20
70456;DHT22;57916;51.996;5.180;2022-12-10T11:15:37;3.90;74.10
70456;DHT22;57916;51.996;5.180;2022-12-10T11:18:33;3.90;74.10
70456;DHT22;57916;51.996;5.180;2022-12-10T11:21:18;4.00;74.00
70456;DHT22;57916;51.996;5.180;2022-12-10T11:23:48;4.00;74.00
70456;DHT22;57916;51.996;5.180;2022-12-10T11:35:01;4.00;74.20
70456;DHT22;57916;51.996;5.180;2022-12-10T11:37:31;4.00;74.10
70456;DHT22;57916;51.996;5.180;2022-12-10T11:40:15;4.00;74.00
70456;DHT22;57916;51.996;5.180;2022-12-10T12:14:16;4.10;74.20
70456;DHT22;57916;51.996;5.180;2022-12-10T12:16:58;4.10;74.20
70456;DHT22;57916;51.996;5.180;2022-12-10T12:22:45;4.30;74.40
70456;DHT22;57916;51.996;5.180;2022-12-10T12:28:15;4.50;74.20
70456;DHT22;57916;51.996;5.180;2022-12-10T12:30:46;4.50;73.80
70456;DHT22;57916;51.996;5.180;2022-12-10T12:36:06;4.60;73.20
70456;DHT22;57916;51.996;5.180;2022-12-10T12:38:49;4.60;73.30
70456;DHT22;57916;51.996;5.180;2022-12-10T12:46:46;4.60;72.70
70456;DHT22;57916;51.996;5.180;2022-12-10T12:49:31;4.60;72.70
70456;DHT22;57916;51.996;5.180;2022-12-10T12:54:46;4.50;73.10
70456;DHT22;57916;51.996;5.180;2022-12-10T13:00:09;4.60;73.20
70456;DHT22;57916;51.996;5.180;2022-12-10T13:05:37;4.60;73.30
70456;DHT22;57916;51.996;5.180;2022-12-10T13:13:30;4.50;73.00
70456;DHT22;57916;51.996;5.180;2022-12-10T13:27:27;4.60;73.40
70456;DHT22;57916;51.996;5.180;2022-12-10T13:29:57;4.60;73.30
70456;DHT22;57916;51.996;5.180;2022-12-10T13:32:44;4.50;73.00
70456;DHT22;57916;51.996;5.180;2022-12-10T13:49:30;4.50;73.50
70456;DHT22;57916;51.996;5.180;2022-12-10T13:52:06;4.50;73.60
70456;DHT22;57916;51.996;5.180;2022-12-10T14:05:47;4.60;73.10
70456;DHT22;57916;51.996;5.180;2022-12-10T14:08:21;4.60;73.40
70456;DHT22;57916;51.996;5.180;2022-12-10T14:10:50;4.60;73.40
70456;DHT22;57916;51.996;5.180;2022-12-10T14:13:20;4.60;73.40
70456;DHT22;57916;51.996;5.180;2022-12-10T14:15:54;4.60;73.40
70456;DHT22;57916;51.996;5.180;2022-12-10T14:18:22;4.60;73.40
70456;DHT22;57916;51.996;5.180;2022-12-10T14:20:52;4.60;73.50
70456;DHT22;57916;51.996;5.180;2022-12-10T14:23:31;4.60;73.60
70456;DHT22;57916;51.996;5.180;2022-12-10T14:26:17;4.60;73.50
70456;DHT22;57916;51.996;5.180;2022-12-10T14:31:38;4.60;73.80
70456;DHT22;57916;51.996;5.180;2022-12-10T14:34:08;4.60;73.80
70456;DHT22;57916;51.996;5.180;2022-12-10T14:36:44;4.60;73.50
70456;DHT22;57916;51.996;5.180;2022-12-10T14:39:17;4.70;73.60
70456;DHT22;57916;51.996;5.180;2022-12-10T14:41:44;4.70;73.70
70456;DHT22;57916;51.996;5.180;2022-12-10T14:44:14;4.70;73.50
70456;DHT22;57916;51.996;5.180;2022-12-10T14:46:42;4.70;73.50
70456;DHT22;57916;51.996;5.180;2022-12-10T14:49:19;4.80;73.60
70456;DHT22;57916;51.996;5.180;2022-12-10T14:51:46;4.80;73.50
70456;DHT22;57916;51.996;5.180;2022-12-10T14:54:27;4.80;73.30
70456;DHT22;57916;51.996;5.180;2022-12-10T14:56:55;4.80;73.30
70456;DHT22;57916;51.996;5.180;2022-12-10T14:59:29;4.80;73.30
70456;DHT22;57916;51.996;5.180;2022-12-10T15:02:00;4.80;73.30
70456;DHT22;57916;51.996;5.180;2022-12-10T15:04:40;4.80;73.30
70456;DHT22;57916;51.996;5.180;2022-12-10T15:07:13;4.80;73.30
70456;DHT22;57916;51.996;5.180;2022-12-10T15:09:42;4.90;73.30
70456;DHT22;57916;51.996;5.180;2022-12-10T15:12:36;4.90;73.20
70456;DHT22;57916;51.996;5.180;2022-12-10T15:15:23;4.90;73.10
70456;DHT22;57916;51.996;5.180;2022-12-10T15:17:58;5.00;73.00
70456;DHT22;57916;51.996;5.180;2022-12-10T15:20:30;5.00;72.90
70456;DHT22;57916;51.996;5.180;2022-12-10T15:26:04;5.00;72.80
70456;DHT22;57916;51.996;5.180;2022-12-10T15:28:38;5.00;72.80
70456;DHT22;57916;51.996;5.180;2022-12-10T15:33:47;4.90;73.10
70456;DHT22;57916;51.996;5.180;2022-12-10T15:36:30;5.00;73.10
70456;DHT22;57916;51.996;5.180;2022-12-10T15:39:03;5.00;72.90
70456;DHT22;57916;51.996;5.180;2022-12-10T15:41:49;5.00;72.80
70456;DHT22;57916;51.996;5.180;2022-12-10T15:47:25;4.90;73.00
70456;DHT22;57916;51.996;5.180;2022-12-10T15:49:54;4.90;73.00
70456;DHT22;57916;51.996;5.180;2022-12-10T15:52:28;4.90;74.10
70456;DHT22;57916;51.996;5.180;2022-12-10T15:54:56;4.90;73.20
70456;DHT22;57916;51.996;5.180;2022-12-10T15:57:35;4.90;73.20
70456;DHT22;57916;51.996;5.180;2022-12-10T16:00:06;4.90;73.20
70456;DHT22;57916;51.996;5.180;2022-12-10T16:05:19;4.90;73.30
70456;DHT22;57916;51.996;5.180;2022-12-10T16:07:49;4.90;73.50
70456;DHT22;57916;51.996;5.180;2022-12-10T16:10:18;5.00;73.60
70456;DHT22;57916;51.996;5.180;2022-12-10T16:12:48;5.00;73.50
70456;DHT22;57916;51.996;5.180;2022-12-10T16:15:21;5.00;73.50
70456;DHT22;57916;51.996;5.180;2022-12-10T16:17:48;5.10;73.40
70456;DHT22;57916;51.996;5.180;2022-12-10T16:20:23;5.10;73.30
70456;DHT22;57916;51.996;5.180;2022-12-10T16:22:53;5.00;73.20
70456;DHT22;57916;51.996;5.180;2022-12-10T16:25:25;5.00;73.30
70456;DHT22;57916;51.996;5.180;2022-12-10T16:27:52;5.10;73.50
70456;DHT22;57916;51.996;5.180;2022-12-10T16:32:48;5.00;73.50
70456;DHT22;57916;51.996;5.180;2022-12-10T16:35:15;5.10;73.60
70456;DHT22;57916;51.996;5.180;2022-12-10T16:37:47;5.10;73.60
70456;DHT22;57916;51.996;5.180;2022-12-10T16:40:16;5.10;73.50
70456;DHT22;57916;51.996;5.180;2022-12-10T16:42:44;5.10;73.40
70456;DHT22;57916;51.996;5.180;2022-12-10T16:45:28;5.10;73.50
70456;DHT22;57916;51.996;5.180;2022-12-10T16:47:55;5.00;73.50
70456;DHT22;57916;51.996;5.180;2022-12-10T16:50:22;5.00;73.70
70456;DHT22;57916;51.996;5.180;2022-12-10T16:52:51;5.00;73.80
70456;DHT22;57916;51.996;5.180;2022-12-10T16:55:21;5.00;73.90
70456;DHT22;57916;51.996;5.180;2022-12-10T16:57:48;5.00;73.90
70456;DHT22;57916;51.996;5.180;2022-12-10T17:00:18;5.00;73.90
70456;DHT22;57916;51.996;5.180;2022-12-10T17:02:47;5.00;73.80
70456;DHT22;57916;51.996;5.180;2022-12-10T17:05:16;5.00;73.80
70456;DHT22;57916;51.996;5.180;2022-12-10T17:07:44;4.90;73.90
70456;DHT22;57916;51.996;5.180;2022-12-10T17:10:12;4.90;74.10
70456;DHT22;57916;51.996;5.180;2022-12-10T17:12:40;4.80;74.20
70456;DHT22;57916;51.996;5.180;2022-12-10T17:15:12;4.80;74.40
70456;DHT22;57916;51.996;5.180;2022-12-10T17:17:43;4.80;74.60
70456;DHT22;57916;51.996;5.180;2022-12-10T17:20:19;4.80;74.60
70456;DHT22;57916;51.996;5.180;2022-12-10T17:22:46;4.90;74.70
70456;DHT22;57916;51.996;5.180;2022-12-10T17:25:13;4.90;74.70
70456;DHT22;57916;51.996;5.180;2022-12-10T17:27:40;4.90;74.70
70456;DHT22;57916;51.996;5.180;2022-12-10T17:30:13;4.90;74.70
70456;DHT22;57916;51.996;5.180;2022-12-10T17:32:41;4.90;74.70
70456;DHT22;57916;51.996;5.180;2022-12-10T17:35:09;4.90;74.70
70456;DHT22;57916;51.996;5.180;2022-12-10T17:37:37;4.90;74.70
70456;DHT22;57916;51.996;5.180;2022-12-10T17:40:19;5.00;74.80
70456;DHT22;57916;51.996;5.180;2022-12-10T17:42:46;5.00;74.70
70456;DHT22;57916;51.996;5.180;2022-12-10T17:45:15;5.00;74.60
70456;DHT22;57916;51.996;5.180;2022-12-10T17:47:48;5.00;74.60
70456;DHT22;57916;51.996;5.180;2022-12-10T17:50:28;5.00;74.60
70456;DHT22;57916;51.996;5.180;2022-12-10T17:53:02;4.90;74.80
70456;DHT22;57916;51.996;5.180;2022-12-10T17:55:30;5.00;74.80
70456;DHT22;57916;51.996;5.180;2022-12-10T17:57:57;5.00;74.70
70456;DHT22;57916;51.996;5.180;2022-12-10T18:00:29;5.00;74.70
70456;DHT22;57916;51.996;5.180;2022-12-10T18:02:56;5.00;74.80
70456;DHT22;57916;51.996;5.180;2022-12-10T18:05:23;4.90;74.80
70456;DHT22;57916;51.996;5.180;2022-12-10T18:07:50;4.80;75.00
70456;DHT22;57916;51.996;5.180;2022-12-10T18:10:24;4.70;75.20
70456;DHT22;57916;51.996;5.180;2022-12-10T18:12:52;4.70;75.20
70456;DHT22;57916;51.996;5.180;2022-12-10T18:15:21;4.70;75.40
70456;DHT22;57916;51.996;5.180;2022-12-10T18:17:49;4.70;75.50
70456;DHT22;57916;51.996;5.180;2022-12-10T18:20:21;4.60;75.60
70456;DHT22;57916;51.996;5.180;2022-12-10T18:22:50;4.50;75.80
70456;DHT22;57916;51.996;5.180;2022-12-10T18:25:17;4.50;75.90
70456;DHT22;57916;51.996;5.180;2022-12-10T18:27:49;4.50;76.20
70456;DHT22;57916;51.996;5.180;2022-12-10T18:30:19;4.50;76.30
70456;DHT22;57916;51.996;5.180;2022-12-10T18:32:47;4.40;76.30
70456;DHT22;57916;51.996;5.180;2022-12-10T18:35:14;4.40;76.60
70456;DHT22;57916;51.996;5.180;2022-12-10T18:37:42;4.40;76.60
70456;DHT22;57916;51.996;5.180;2022-12-10T18:40:15;4.40;76.70
70456;DHT22;57916;51.996;5.180;2022-12-10T18:42:42;4.40;76.70
70456;DHT22;57916;51.996;5.180;2022-12-10T18:45:13;4.50;76.60
70456;DHT22;57916;51.996;5.180;2022-12-10T18:47:40;4.50;76.60
70456;DHT22;57916;51.996;5.180;2022-12-10T18:50:21;4.50;77.50
70456;DHT22;57916;51.996;5.180;2022-12-10T18:52:50;4.50;76.70